Time;durP1;ratioP1;P1;durP2;ratioP2;P2;SDS_P1;SDS_P2;PMS_P1;PMS_P2;Temp;Humidity;BMP_temperature;BMP_pressure;BME280_temperature;BME280_humidity;BME280_pressure;Samples;Min_cycle;Max_cycle;Signal;HPM_P1;HPM_P2
2022/09/18 00:01:29;;;;;;;8.35;1.63;;;;;;;-148.22;100.00;64452.44;5004321;28;20038;-67
2022/09/18 00:03:59;;;;;;;6.68;1.38;;;;;;;-148.22;100.00;64452.44;5008501;28;20176;-65
2022/09/18 00:06:28;;;;;;;5.03;1.33;;;;;;;-148.22;100.00;64452.44;5021681;28;20045;-67
2022/09/18 00:08:57;;;;;;;6.97;1.42;;;;;;;-148.22;100.00;64452.44;5014518;28;20509;-64
2022/09/18 00:11:26;;;;;;;8.55;2.55;;;;;;;-148.22;100.00;64452.44;5028843;28;20045;-64
2022/09/18 00:13:53;;;;;;;7.22;1.60;;;;;;;-148.22;100.00;64452.44;5045114;28;20060;-64
2022/09/18 00:16:21;;;;;;;7.00;1.42;;;;;;;-148.22;100.00;64452.44;5028376;28;20041;-67
2022/09/18 00:18:48;;;;;;;3.08;1.67;;;;;;;-148.22;100.00;64452.44;5021460;28;20037;-67
2022/09/18 00:21:17;;;;;;;6.32;1.60;;;;;;;-148.22;100.00;64452.44;5027979;28;20041;-64
2022/09/18 00:23:44;;;;;;;6.57;1.35;;;;;;;-148.22;100.00;64452.44;5009986;28;20050;-67
2022/09/18 00:26:16;;;;;;;5.90;1.95;;;;;;;-148.22;100.00;64452.44;5028409;28;20063;-64
2022/09/18 00:28:44;;;;;;;10.10;1.77;;;;;;;-148.22;100.00;64452.44;5016451;28;20072;-65
2022/09/18 00:31:15;;;;;;;3.15;1.17;;;;;;;-148.22;100.00;64452.44;5008599;28;20034;-65
2022/09/18 00:33:42;;;;;;;4.15;1.33;;;;;;;-148.22;100.00;64452.44;5025328;28;20363;-64
2022/09/18 00:36:13;;;;;;;7.10;1.58;;;;;;;-148.22;100.00;64452.44;5008499;28;20045;-66
2022/09/18 00:38:40;;;;;;;7.13;1.30;;;;;;;-148.22;100.00;64452.44;5024086;28;20516;-64
2022/09/18 00:41:12;;;;;;;6.07;1.30;;;;;;;-148.22;100.00;64452.44;5017720;28;20041;-66
2022/09/18 00:43:38;;;;;;;;;;;;;;;-148.22;100.00;64452.44;5034292;28;20125;-65
2022/09/18 00:46:34;;;;;;;5.90;1.60;;;;;;;-148.22;100.00;64452.44;5007957;28;19929;-66
2022/09/18 00:49:21;;;;;;;4.22;1.15;;;;;;;-148.22;100.00;64452.44;5010316;28;20044;-65
2022/09/18 00:51:52;;;;;;;3.55;1.25;;;;;;;-148.22;100.00;64452.44;5026683;28;20124;-64
2022/09/18 00:54:28;;;;;;;6.97;1.20;;;;;;;-148.22;100.00;64452.44;5027890;28;20041;-65
2022/09/18 00:56:58;;;;;;;2.63;1.10;;;;;;;-148.22;100.00;64452.44;5027029;28;20385;-64
2022/09/18 00:59:28;;;;;;;4.30;1.40;;;;;;;-148.22;100.00;64452.44;5024347;28;20049;-65
2022/09/18 01:01:56;;;;;;;7.18;1.73;;;;;;;-148.22;100.00;64452.44;5026743;28;20116;-66
2022/09/18 01:04:24;;;;;;;7.43;1.42;;;;;;;-148.22;100.00;64452.44;5007792;28;20038;-66
2022/09/18 01:06:56;;;;;;;6.03;1.45;;;;;;;-148.22;100.00;64452.44;5016553;28;20041;-64
2022/09/18 01:09:44;;;;;;;4.80;1.00;;;;;;;-148.22;100.00;64452.44;5026432;28;20057;-65
2022/09/18 01:12:31;;;;;;;6.80;1.10;;;;;;;-148.22;100.00;64452.44;5024364;28;20578;-65
2022/09/18 01:15:17;;;;;;;3.80;0.95;;;;;;;-148.22;100.00;64452.44;5026572;28;20500;-65
2022/09/18 01:18:01;;;;;;;3.83;1.20;;;;;;;-148.22;100.00;64452.44;5027134;28;20480;-65
2022/09/18 01:20:55;;;;;;;6.03;1.80;;;;;;;-148.22;100.00;64452.44;5010488;28;20071;-67
2022/09/18 01:23:34;;;;;;;3.80;1.55;;;;;;;-148.22;100.00;64452.44;5023232;28;20041;-67
2022/09/18 01:26:00;;;;;;;4.60;1.33;;;;;;;-148.22;100.00;64452.44;5026018;28;20051;-64
2022/09/18 01:28:48;;;;;;;7.40;2.20;;;;;;;-148.22;100.00;64452.44;5018024;28;20137;-64
2022/09/18 01:31:53;;;;;;;4.63;1.67;;;;;;;-148.22;100.00;64452.44;5024179;28;20099;-67
2022/09/18 01:34:26;;;;;;;8.48;2.13;;;;;;;-148.22;100.00;64452.44;5016991;28;20057;-66
2022/09/18 01:37:03;;;;;;;4.65;1.50;;;;;;;-148.22;100.00;64452.44;5025990;28;20493;-65
2022/09/18 01:39:37;;;;;;;4.03;1.40;;;;;;;-148.22;100.00;64452.44;5016981;28;20515;-67
2022/09/18 01:42:07;;;;;;;8.07;1.70;;;;;;;-148.22;100.00;64452.44;5022465;28;20061;-65
2022/09/18 01:44:36;;;;;;;6.15;1.77;;;;;;;-148.22;100.00;64452.44;5015786;28;20053;-65
2022/09/18 01:47:08;;;;;;;3.92;1.48;;;;;;;-148.22;100.00;64452.44;5017758;28;20567;-65
2022/09/18 01:49:44;;;;;;;5.72;1.30;;;;;;;-148.22;100.00;64452.44;5015987;28;20509;-66
2022/09/18 01:52:22;;;;;;;5.70;1.52;;;;;;;-148.22;100.00;64452.44;5022821;28;20103;-65
2022/09/18 01:54:54;;;;;;;3.35;1.75;;;;;;;-148.22;100.00;64452.44;5032649;28;20049;-65
2022/09/18 01:58:05;;;;;;;4.68;1.58;;;;;;;-148.22;100.00;64452.44;5024844;28;20111;-67
2022/09/18 02:00:35;;;;;;;6.28;1.50;;;;;;;-148.22;100.00;64452.44;5004520;28;20052;-65
2022/09/18 02:03:08;;;;;;;4.82;1.83;;;;;;;-148.22;100.00;64452.44;5023776;28;20072;-65
2022/09/18 02:05:44;;;;;;;4.57;1.55;;;;;;;-148.22;100.00;64452.44;5024119;28;20076;-65
2022/09/18 02:08:49;;;;;;;9.32;2.38;;;;;;;-148.22;100.00;64452.44;5007414;28;20057;-64
2022/09/18 02:11:18;;;;;;;4.95;1.70;;;;;;;-148.22;100.00;64452.44;4992368;28;20084;-65
2022/09/18 02:14:01;;;;;;;5.22;1.65;;;;;;;-148.22;100.00;64452.44;5030463;28;20045;-67
2022/09/18 02:16:51;;;;;;;5.05;1.63;;;;;;;-148.22;100.00;64452.44;5003753;28;20046;-64
2022/09/18 02:19:31;;;;;;;2.47;1.38;;;;;;;-148.22;100.00;64452.44;5019989;28;20041;-66
2022/09/18 02:22:00;;;;;;;4.38;1.50;;;;;;;-148.22;100.00;64452.44;5024468;28;20587;-64
2022/09/18 02:24:31;;;;;;;4.15;1.80;;;;;;;-148.22;100.00;64452.44;5017773;28;20136;-64
2022/09/18 02:27:00;;;;;;;4.10;1.50;;;;;;;-148.22;100.00;64452.44;5018841;28;20045;-65
2022/09/18 02:29:27;;;;;;;4.65;1.63;;;;;;;-148.22;100.00;64452.44;5021872;28;20049;-65
2022/09/18 02:31:54;;;;;;;4.85;1.50;;;;;;;-148.22;100.00;64452.44;5020047;28;20037;-66
2022/09/18 02:34:22;;;;;;;6.28;1.58;;;;;;;-148.22;100.00;64452.44;5010702;28;20072;-65
2022/09/18 02:36:59;;;;;;;3.13;1.40;;;;;;;-148.22;100.00;64452.44;5023065;28;20037;-65
2022/09/18 02:39:53;;;;;;;4.95;1.20;;;;;;;-148.22;100.00;64452.44;5007163;28;20144;-64
2022/09/18 02:42:32;;;;;;;3.38;1.55;;;;;;;-148.22;100.00;64452.44;5031258;28;20041;-66
2022/09/18 02:45:12;;;;;;;3.88;1.40;;;;;;;-148.22;100.00;64452.44;5032194;28;20568;-65
2022/09/18 02:47:46;;;;;;;2.78;1.40;;;;;;;-148.22;100.00;64452.44;5024507;28;20520;-66
2022/09/18 02:50:23;;;;;;;3.38;1.42;;;;;;;-148.22;100.00;64452.44;5011559;28;20046;-66
2022/09/18 02:53:06;;;;;;;4.80;1.48;;;;;;;-148.22;100.00;64452.44;5033442;28;20116;-65
2022/09/18 02:55:43;;;;;;;2.10;0.95;;;;;;;-148.22;100.00;64452.44;5029211;28;20060;-66
2022/09/18 02:58:41;;;;;;;1.60;1.13;;;;;;;-148.22;100.00;64452.44;5024923;28;20540;-64
2022/09/18 03:01:11;;;;;;;2.78;1.20;;;;;;;-148.22;100.00;64452.44;5014904;28;20049;-66
2022/09/18 03:03:39;;;;;;;2.65;1.52;;;;;;;-148.22;100.00;64452.44;5023392;28;20706;-65
2022/09/18 03:06:08;;;;;;;6.07;2.00;;;;;;;-148.22;100.00;64452.44;5005046;28;20056;-65
2022/09/18 03:08:35;;;;;;;6.60;1.90;;;;;;;-148.22;100.00;64452.44;5012862;28;20048;-65
2022/09/18 03:11:03;;;;;;;4.25;1.58;;;;;;;-148.22;100.00;64452.44;5004205;28;20162;-66
2022/09/18 03:13:30;;;;;;;3.55;1.42;;;;;;;-148.22;100.00;64452.44;5033337;28;20126;-64
2022/09/18 03:15:57;;;;;;;7.05;1.77;;;;;;;-148.22;100.00;64452.44;5004771;28;20073;-66
2022/09/18 03:18:25;;;;;;;5.32;1.50;;;;;;;-148.22;100.00;64452.44;5013157;28;20038;-64
2022/09/18 03:20:54;;;;;;;4.55;1.48;;;;;;;-148.22;100.00;64452.44;5024171;28;20060;-64
2022/09/18 03:23:22;;;;;;;3.22;1.50;;;;;;;-148.22;100.00;64452.44;5008028;28;20042;-64
2022/09/18 03:25:51;;;;;;;3.92;1.23;;;;;;;-148.22;100.00;64452.44;5022408;28;20041;-66
2022/09/18 03:28:18;;;;;;;3.00;1.60;;;;;;;-148.22;100.00;64452.44;5009482;28;20125;-65
2022/09/18 03:30:44;;;;;;;3.78;1.25;;;;;;;-148.22;100.00;64452.44;5004065;28;20430;-65
2022/09/18 03:33:12;;;;;;;2.67;1.60;;;;;;;-148.22;100.00;64452.44;5018184;28;20038;-67
2022/09/18 03:35:42;;;;;;;4.72;2.80;;;;;;;-148.22;100.00;64452.44;5011085;28;20037;-64
2022/09/18 03:38:09;;;;;;;4.32;1.67;;;;;;;-148.22;100.00;64452.44;5024286;28;20455;-64
2022/09/18 03:40:36;;;;;;;2.83;1.20;;;;;;;-148.22;100.00;64452.44;5007595;28;20461;-67
2022/09/18 03:43:04;;;;;;;5.22;1.98;;;;;;;-148.22;100.00;64452.44;5032862;28;20028;-65
2022/09/18 03:45:31;;;;;;;5.43;1.52;;;;;;;-148.22;100.00;64452.44;5012775;28;20046;-65
2022/09/18 03:47:58;;;;;;;2.85;1.50;;;;;;;-148.22;100.00;64452.44;5007799;28;20136;-65
2022/09/18 03:50:25;;;;;;;3.95;1.90;;;;;;;-148.22;100.00;64452.44;5020864;28;20416;-65
2022/09/18 03:52:51;;;;;;;3.55;1.70;;;;;;;-148.22;100.00;64452.44;5027703;28;20076;-65
2022/09/18 03:55:39;;;;;;;4.10;1.35;;;;;;;-148.22;100.00;64452.44;5026884;28;20053;-64
2022/09/18 03:58:26;;;;;;;3.55;1.42;;;;;;;-148.22;100.00;64452.44;5025054;28;20065;-65
2022/09/18 04:01:28;;;;;;;9.52;1.50;;;;;;;-148.22;100.00;64452.44;5027213;28;20204;-65
2022/09/18 04:04:17;;;;;;;2.55;1.33;;;;;;;-148.22;100.00;64452.44;5029363;28;20542;-65
2022/09/18 04:07:22;;;;;;;4.18;1.52;;;;;;;-148.22;100.00;64452.44;5028679;28;20149;-65
2022/09/18 04:10:06;;;;;;;5.13;1.45;;;;;;;-148.22;100.00;64452.44;5015507;28;20496;-64
2022/09/18 04:12:36;;;;;;;3.27;1.63;;;;;;;-148.22;100.00;64452.44;5033094;28;20092;-66
2022/09/18 04:15:18;;;;;;;4.07;1.63;;;;;;;-148.22;100.00;64452.44;5016215;28;20056;-65
2022/09/18 04:17:45;;;;;;;5.20;1.80;;;;;;;-148.22;100.00;64452.44;5012570;28;20471;-64
2022/09/18 04:20:12;;;;;;;2.83;1.50;;;;;;;-148.22;100.00;64452.44;5026086;28;20045;-66
2022/09/18 04:22:40;;;;;;;4.80;1.80;;;;;;;-148.22;100.00;64452.44;5027070;28;20081;-65
2022/09/18 04:25:07;;;;;;;5.40;2.00;;;;;;;-148.22;100.00;64452.44;5025042;28;20154;-66
2022/09/18 04:27:35;;;;;;;5.55;2.30;;;;;;;-148.22;100.00;64452.44;5024948;28;20038;-64
2022/09/18 04:30:02;;;;;;;6.03;1.80;;;;;;;-148.22;100.00;64452.44;5027081;28;20053;-64
2022/09/18 04:32:29;;;;;;;5.68;1.88;;;;;;;-148.22;100.00;64452.44;5024162;28;20399;-65
2022/09/18 04:34:56;;;;;;;3.25;1.80;;;;;;;-148.22;100.00;64452.44;5019945;28;20115;-64
2022/09/18 04:37:24;;;;;;;3.53;1.75;;;;;;;-148.22;100.00;64452.44;5025328;28;20034;-65
2022/09/18 04:39:51;;;;;;;5.30;2.75;;;;;;;-148.22;100.00;64452.44;5023690;28;20522;-67
2022/09/18 04:42:20;;;;;;;4.00;1.83;;;;;;;-148.22;100.00;64452.44;5030193;28;20128;-64
2022/09/18 04:44:46;;;;;;;4.00;2.00;;;;;;;-148.22;100.00;64452.44;5028815;28;20111;-65
2022/09/18 04:47:13;;;;;;;4.53;2.00;;;;;;;-148.22;100.00;64452.44;5045092;28;20276;-65
2022/09/18 04:49:40;;;;;;;3.28;1.70;;;;;;;-148.22;100.00;64452.44;5029973;28;20072;-65
2022/09/18 04:52:06;;;;;;;3.92;1.70;;;;;;;-148.22;100.00;64452.44;5031497;28;20042;-64
2022/09/18 04:54:33;;;;;;;3.30;1.70;;;;;;;-148.22;100.00;64452.44;5012424;28;20137;-65
2022/09/18 04:56:59;;;;;;;6.75;1.70;;;;;;;-148.22;100.00;64452.44;5010156;28;20434;-64
2022/09/18 04:59:26;;;;;;;5.03;1.60;;;;;;;-148.22;100.00;64452.44;5023566;28;20096;-66
2022/09/18 05:01:55;;;;;;;3.67;1.88;;;;;;;-148.22;100.00;64452.44;5006449;28;20509;-65
2022/09/18 05:04:22;;;;;;;4.50;2.00;;;;;;;-148.22;100.00;64452.44;5008557;28;20049;-66
2022/09/18 05:06:55;;;;;;;4.80;1.77;;;;;;;-148.22;100.00;64452.44;5006897;28;20045;-64
2022/09/18 05:09:21;;;;;;;4.75;2.10;;;;;;;-148.22;100.00;64452.44;5019749;28;20041;-66
2022/09/18 05:11:48;;;;;;;3.75;1.83;;;;;;;-148.22;100.00;64452.44;5025524;28;20140;-65
2022/09/18 05:14:15;;;;;;;4.43;1.85;;;;;;;-148.22;100.00;64452.44;5021217;28;20048;-65
2022/09/18 05:16:46;;;;;;;9.00;3.10;;;;;;;-148.22;100.00;64452.44;5025549;28;20523;-65
2022/09/18 05:19:26;;;;;;;4.63;1.88;;;;;;;-148.22;100.00;64452.44;5021874;28;20048;-65
2022/09/18 05:21:59;;;;;;;5.20;1.70;;;;;;;-148.22;100.00;64452.44;5025701;28;20059;-64
2022/09/18 05:24:26;;;;;;;6.05;2.50;;;;;;;-148.22;100.00;64452.44;5026352;28;20116;-65
2022/09/18 05:26:52;;;;;;;4.70;2.00;;;;;;;-148.22;100.00;64452.44;5024455;28;20096;-64
2022/09/18 05:29:20;;;;;;;7.03;2.10;;;;;;;-148.22;100.00;64452.44;5016293;28;20433;-64
2022/09/18 05:31:48;;;;;;;4.60;2.25;;;;;;;-148.22;100.00;64452.44;5025254;28;20520;-64
2022/09/18 05:34:15;;;;;;;3.90;2.65;;;;;;;-148.22;100.00;64452.44;5021839;28;20051;-65
2022/09/18 05:36:41;;;;;;;4.80;2.35;;;;;;;-148.22;100.00;64452.44;5022937;28;20068;-65
2022/09/18 05:39:08;;;;;;;3.88;2.50;;;;;;;-148.22;100.00;64452.44;5020567;28;20045;-65
2022/09/18 05:41:40;;;;;;;;;;;;;;;-148.22;100.00;64452.44;5024157;28;20630;-65
2022/09/18 05:44:06;;;;;;;6.78;1.92;;;;;;;-148.22;100.00;64452.44;5023369;28;19964;-65
2022/09/18 05:46:34;;;;;;;4.75;2.47;;;;;;;-148.22;100.00;64452.44;5013763;28;20033;-65
2022/09/18 05:49:02;;;;;;;5.07;2.35;;;;;;;-148.22;100.00;64452.44;5024676;28;20041;-65
2022/09/18 05:51:28;;;;;;;6.45;2.53;;;;;;;-148.22;100.00;64452.44;5025279;28;20104;-66
2022/09/18 05:53:55;;;;;;;4.05;2.53;;;;;;;-148.22;100.00;64452.44;5021400;28;20057;-64
2022/09/18 05:56:26;;;;;;;7.72;2.92;;;;;;;-148.22;100.00;64452.44;5024811;28;20049;-65
2022/09/18 05:58:54;;;;;;;5.65;2.22;;;;;;;-148.22;100.00;64452.44;5022099;28;20050;-67
2022/09/18 06:01:21;;;;;;;8.07;3.00;;;;;;;-148.22;100.00;64452.44;5001893;28;20552;-64
2022/09/18 06:04:08;;;;;;;8.00;3.33;;;;;;;-148.22;100.00;64452.44;5004883;28;20053;-66
2022/09/18 06:06:47;;;;;;;5.50;2.53;;;;;;;-148.22;100.00;64452.44;5005651;28;20052;-65
2022/09/18 06:09:13;;;;;;;5.20;2.60;;;;;;;-148.22;100.00;64452.44;5010249;28;20665;-64
2022/09/18 06:11:40;;;;;;;3.33;2.13;;;;;;;-148.22;100.00;64452.44;5027012;28;20103;-66
2022/09/18 06:14:07;;;;;;;6.35;2.03;;;;;;;-148.22;100.00;64452.44;5026829;28;20038;-65
2022/09/18 06:16:33;;;;;;;6.68;2.30;;;;;;;-148.22;100.00;64452.44;5015804;28;20041;-64
2022/09/18 06:19:07;;;;;;;6.43;2.40;;;;;;;-148.22;100.00;64452.44;5020989;28;20053;-64
2022/09/18 06:21:34;;;;;;;8.55;3.53;;;;;;;-148.22;100.00;64452.44;5037061;28;20124;-65
2022/09/18 06:24:02;;;;;;;4.30;2.10;;;;;;;-148.22;100.00;64452.44;5020099;28;20076;-67
2022/09/18 06:26:55;;;;;;;4.75;2.20;;;;;;;-148.22;100.00;64452.44;5022668;28;20140;-66
2022/09/18 06:29:21;;;;;;;5.22;2.28;;;;;;;-148.22;100.00;64452.44;5022255;28;20073;-64
2022/09/18 06:31:55;;;;;;;6.40;2.13;;;;;;;-148.22;100.00;64452.44;5021892;28;20106;-66
2022/09/18 06:34:24;;;;;;;5.78;2.08;;;;;;;-148.22;100.00;64452.44;5019475;28;20284;-65
2022/09/18 06:36:54;;;;;;;6.88;2.42;;;;;;;-148.22;100.00;64452.44;5015695;28;20041;-65
2022/09/18 06:39:45;;;;;;;6.40;2.67;;;;;;;-148.22;100.00;64452.44;5012117;28;20053;-66
2022/09/18 06:42:21;;;;;;;7.25;2.75;;;;;;;-148.22;100.00;64452.44;5030079;28;20041;-65
2022/09/18 06:45:06;;;;;;;8.15;3.00;;;;;;;-148.22;100.00;64452.44;5013884;28;20065;-65
2022/09/18 06:47:33;;;;;;;7.03;2.60;;;;;;;-148.22;100.00;64452.44;5014285;28;20038;-66
2022/09/18 06:49:59;;;;;;;8.50;2.35;;;;;;;-148.22;100.00;64452.44;5021956;28;20060;-65
2022/09/18 06:52:27;;;;;;;7.00;3.17;;;;;;;-148.22;100.00;64452.44;5023723;28;20047;-64
2022/09/18 06:54:56;;;;;;;4.78;2.85;;;;;;;-148.22;100.00;64452.44;5011664;28;20573;-65
2022/09/18 06:57:30;;;;;;;4.28;2.60;;;;;;;-148.22;100.00;64452.44;5021394;28;20094;-67
2022/09/18 06:59:56;;;;;;;5.35;2.53;;;;;;;-148.22;100.00;64452.44;5019986;28;20052;-65
2022/09/18 07:02:23;;;;;;;4.38;2.35;;;;;;;-148.22;100.00;64452.44;5020724;28;20045;-64
2022/09/18 07:05:13;;;;;;;3.55;1.90;;;;;;;-148.22;100.00;64452.44;5021227;28;20068;-64
2022/09/18 07:07:44;;;;;;;5.35;1.90;;;;;;;-148.22;100.00;64452.44;5026402;28;20041;-67
2022/09/18 07:10:10;;;;;;;5.05;2.00;;;;;;;-148.22;100.00;64452.44;5029062;28;20127;-64
2022/09/18 07:12:41;;;;;;;3.85;1.70;;;;;;;-148.22;100.00;64452.44;5027629;28;20041;-64
2022/09/18 07:15:08;;;;;;;6.60;2.83;;;;;;;-148.22;100.00;64452.44;5025581;28;20045;-64
2022/09/18 07:17:34;;;;;;;9.43;1.90;;;;;;;-148.22;100.00;64452.44;5029669;28;20061;-64
2022/09/18 07:20:01;;;;;;;5.15;2.25;;;;;;;-148.22;100.00;64452.44;5026576;28;20052;-65
2022/09/18 07:22:40;;;;;;;4.40;1.58;;;;;;;-148.22;100.00;64452.44;5030550;28;20063;-65
2022/09/18 07:25:12;;;;;;;2.47;1.50;;;;;;;-148.22;100.00;64452.44;5026470;28;20132;-64
2022/09/18 07:27:41;;;;;;;4.82;1.50;;;;;;;-148.22;100.00;64452.44;5015307;28;20053;-64
2022/09/18 07:30:09;;;;;;;4.47;1.90;;;;;;;-148.22;100.00;64452.44;5025713;28;20398;-65
2022/09/18 07:32:35;;;;;;;4.93;1.70;;;;;;;-148.22;100.00;64452.44;5021860;28;20473;-64
2022/09/18 07:35:10;;;;;;;2.95;1.58;;;;;;;-148.22;100.00;64452.44;5028644;28;20049;-65
2022/09/18 07:37:37;;;;;;;3.40;1.83;;;;;;;-148.22;100.00;64452.44;5028442;28;20056;-66
2022/09/18 07:40:16;;;;;;;4.95;2.10;;;;;;;-148.22;100.00;64452.44;5025547;28;20057;-64
2022/09/18 07:43:09;;;;;;;3.42;1.40;;;;;;;-148.22;100.00;64452.44;5038921;28;20085;-64
2022/09/18 07:45:43;;;;;;;7.13;2.30;;;;;;;-148.22;100.00;64452.44;5016120;28;20041;-64
2022/09/18 07:48:10;;;;;;;5.28;2.33;;;;;;;-148.22;100.00;64452.44;5028129;28;20374;-66
2022/09/18 07:50:45;;;;;;;6.18;1.80;;;;;;;-148.22;100.00;64452.44;5034893;28;20052;-65
2022/09/18 07:53:11;;;;;;;6.63;1.70;;;;;;;-148.22;100.00;64452.44;5026675;28;20298;-65
2022/09/18 07:55:44;;;;;;;4.30;1.60;;;;;;;-148.22;100.00;64452.44;5026621;28;20088;-65
2022/09/18 07:58:12;;;;;;;4.68;2.00;;;;;;;-148.22;100.00;64452.44;5018800;28;20080;-64
2022/09/18 08:01:03;;;;;;;4.00;1.50;;;;;;;-148.22;100.00;64452.44;5024862;28;20061;-64
2022/09/18 08:03:32;;;;;;;5.43;1.75;;;;;;;-148.22;100.00;64452.44;5025462;28;20044;-65
2022/09/18 08:06:23;;;;;;;3.10;1.83;;;;;;;-148.22;100.00;64452.44;5031934;28;20599;-66
2022/09/18 08:09:05;;;;;;;3.40;1.70;;;;;;;-148.22;100.00;64452.44;5045561;28;20690;-66
2022/09/18 08:11:52;;;;;;;5.85;1.70;;;;;;;-148.22;100.00;64452.44;5031593;28;20127;-65
2022/09/18 08:14:26;;;;;;;3.45;1.50;;;;;;;-148.22;100.00;64452.44;5033537;28;20047;-64
2022/09/18 08:17:21;;;;;;;3.70;1.70;;;;;;;-148.22;100.00;64452.44;5024690;28;20056;-65
2022/09/18 08:20:05;;;;;;;5.05;1.52;;;;;;;-148.22;100.00;64452.44;5037418;28;20049;-64
2022/09/18 08:22:41;;;;;;;5.88;1.85;;;;;;;-148.22;100.00;64452.44;5013149;28;20200;-64
2022/09/18 08:25:10;;;;;;;3.70;1.85;;;;;;;-148.22;100.00;64452.44;5020362;28;20048;-65
2022/09/18 08:27:40;;;;;;;3.85;1.73;;;;;;;-148.22;100.00;64452.44;5022977;28;20037;-66
2022/09/18 08:30:09;;;;;;;4.57;1.95;;;;;;;-148.22;100.00;64452.44;5023317;28;20049;-65
2022/09/18 08:32:38;;;;;;;5.93;2.27;;;;;;;-148.22;100.00;64452.44;5024531;28;20049;-65
2022/09/18 08:35:06;;;;;;;4.90;2.42;;;;;;;-148.22;100.00;64452.44;5024691;28;20072;-64
2022/09/18 08:37:33;;;;;;;5.13;2.15;;;;;;;-148.22;100.00;64452.44;5018749;28;20653;-65
2022/09/18 08:40:24;;;;;;;7.13;2.35;;;;;;;-148.22;100.00;64452.44;5012604;28;20060;-66
2022/09/18 08:43:22;;;;;;;3.38;1.73;;;;;;;-148.22;100.00;64452.44;5028157;28;20471;-65
2022/09/18 08:45:57;;;;;;;5.22;1.98;;;;;;;-148.22;100.00;64452.44;5018515;28;20140;-65
2022/09/18 08:48:28;;;;;;;3.58;2.20;;;;;;;-148.22;100.00;64452.44;5033201;28;20048;-64
2022/09/18 08:51:03;;;;;;;3.75;1.65;;;;;;;-148.22;100.00;64452.44;5027229;28;20052;-65
2022/09/18 08:53:39;;;;;;;4.68;2.67;;;;;;;-148.22;100.00;64452.44;5025012;28;20041;-65
2022/09/18 08:56:25;;;;;;;3.58;1.75;;;;;;;-148.22;100.00;64452.44;5015096;28;20056;-65
2022/09/18 08:59:20;;;;;;;3.40;1.88;;;;;;;-148.22;100.00;64452.44;5018335;28;20203;-64
2022/09/18 09:02:08;;;;;;;3.80;1.90;;;;;;;-148.22;100.00;64452.44;5017320;28;20280;-64
2022/09/18 09:04:35;;;;;;;4.95;1.60;;;;;;;-148.22;100.00;64452.44;5019564;28;20041;-65
2022/09/18 09:07:16;;;;;;;4.20;1.75;;;;;;;-148.22;100.00;64452.44;5015277;28;20133;-65
2022/09/18 09:10:15;;;;;;;5.82;2.00;;;;;;;-148.22;100.00;64452.44;5009963;28;20064;-65
2022/09/18 09:13:02;;;;;;;5.97;2.15;;;;;;;-148.22;100.00;64452.44;5020257;28;20076;-65
2022/09/18 09:15:38;;;;;;;7.82;2.20;;;;;;;-148.22;100.00;64452.44;5029406;28;20040;-65
2022/09/18 09:18:15;;;;;;;5.70;2.63;;;;;;;-148.22;100.00;64452.44;5020422;28;20048;-65
2022/09/18 09:20:54;;;;;;;7.93;1.67;;;;;;;-148.22;100.00;64452.44;5023927;28;20116;-64
2022/09/18 09:23:42;;;;;;;3.58;1.58;;;;;;;-148.22;100.00;64452.44;5024151;28;20046;-64
2022/09/18 09:26:24;;;;;;;5.97;1.65;;;;;;;-148.22;100.00;64452.44;5018660;28;20527;-64
2022/09/18 09:29:11;;;;;;;4.63;1.50;;;;;;;-148.22;100.00;64452.44;5020958;28;20053;-64
2022/09/18 09:32:06;;;;;;;6.05;1.50;;;;;;;-148.22;100.00;64452.44;5021654;28;20480;-64
2022/09/18 09:35:24;;;;;;;5.20;1.60;;;;;;;-148.22;100.00;64452.44;5020315;28;20547;-64
2022/09/18 09:38:30;;;;;;;5.63;1.48;;;;;;;-148.22;100.00;64452.44;5014538;28;20046;-64
2022/09/18 09:41:06;;;;;;;6.50;2.53;;;;;;;-148.22;100.00;64452.44;5014377;28;20340;-65
2022/09/18 09:43:40;;;;;;;3.60;1.25;;;;;;;-148.22;100.00;64452.44;5021503;28;20055;-64
2022/09/18 09:46:23;;;;;;;5.57;1.25;;;;;;;-148.22;100.00;64452.44;5015861;28;20042;-64
2022/09/18 09:49:00;;;;;;;3.15;0.93;;;;;;;-148.22;100.00;64452.44;5018375;28;20049;-64
2022/09/18 09:51:47;;;;;;;2.70;1.13;;;;;;;-148.22;100.00;64452.44;5016397;28;20045;-65
2022/09/18 09:54:14;;;;;;;5.80;1.10;;;;;;;-148.22;100.00;64452.44;5020521;28;20143;-64
2022/09/18 09:56:51;;;;;;;6.22;1.20;;;;;;;-148.22;100.00;64452.44;5020187;28;20312;-64
2022/09/18 09:59:41;;;;;;;7.18;1.90;;;;;;;-148.22;100.00;64452.44;5018786;28;20348;-64
2022/09/18 10:02:33;;;;;;;4.20;1.02;;;;;;;-148.22;100.00;64452.44;5027394;28;20060;-65
2022/09/18 10:05:21;;;;;;;4.28;0.98;;;;;;;-148.22;100.00;64452.44;5019161;28;20048;-65
2022/09/18 10:08:03;;;;;;;7.15;1.08;;;;;;;-148.22;100.00;64452.44;5025427;28;20053;-64
2022/09/18 10:10:44;;;;;;;6.68;1.67;;;;;;;-148.22;100.00;64452.44;5021961;28;20052;-64
2022/09/18 10:13:18;;;;;;;4.85;0.90;;;;;;;-148.22;100.00;64452.44;5038626;28;20433;-64
2022/09/18 10:15:48;;;;;;;5.30;1.00;;;;;;;-148.22;100.00;64452.44;5035318;28;20041;-64
2022/09/18 10:18:29;;;;;;;4.90;1.00;;;;;;;-148.22;100.00;64452.44;5025710;28;20049;-64
2022/09/18 10:21:04;;;;;;;2.20;0.75;;;;;;;-148.22;100.00;64452.44;5025354;28;20045;-66
2022/09/18 10:23:42;;;;;;;5.43;1.17;;;;;;;-148.22;100.00;64452.44;5028298;28;20048;-65
2022/09/18 10:26:20;;;;;;;4.43;1.20;;;;;;;-148.22;100.00;64452.44;5025162;28;20060;-65
2022/09/18 10:28:47;;;;;;;2.92;1.00;;;;;;;-148.22;100.00;64452.44;5024644;28;20516;-64
2022/09/18 10:31:15;;;;;;;3.50;0.80;;;;;;;-148.22;100.00;64452.44;5020115;28;20041;-64
2022/09/18 10:33:49;;;;;;;3.80;0.95;;;;;;;-148.22;100.00;64452.44;5022808;28;20041;-63
2022/09/18 10:36:41;;;;;;;4.20;0.52;;;;;;;-148.22;100.00;64452.44;5022286;28;20077;-65
2022/09/18 10:39:25;;;;;;;3.28;0.90;;;;;;;-148.22;100.00;64452.44;5036237;28;20164;-64
2022/09/18 10:42:03;;;;;;;3.35;1.13;;;;;;;-148.22;100.00;64452.44;5018232;28;20053;-65
2022/09/18 10:44:36;;;;;;;2.47;0.68;;;;;;;-148.22;100.00;64452.44;5038147;28;20087;-64
2022/09/18 10:47:09;;;;;;;1.85;0.75;;;;;;;-148.22;100.00;64452.44;5022698;28;20551;-63
2022/09/18 10:49:49;;;;;;;6.78;1.60;;;;;;;-148.22;100.00;64452.44;5035219;28;20567;-63
2022/09/18 10:52:20;;;;;;;3.67;1.02;;;;;;;-148.22;100.00;64452.44;5025018;28;20045;-63
2022/09/18 10:55:20;;;;;;;3.53;0.90;;;;;;;-148.22;100.00;64452.44;5028258;28;20041;-65
2022/09/18 10:58:14;;;;;;;2.42;0.70;;;;;;;-148.22;100.00;64452.44;5005844;28;20504;-64
2022/09/18 11:00:58;;;;;;;3.88;0.93;;;;;;;-148.22;100.00;64452.44;5018379;28;20045;-65
2022/09/18 11:03:44;;;;;;;2.58;0.40;;;;;;;-148.22;100.00;64452.44;5032825;28;20857;-64
2022/09/18 11:06:25;;;;;;;2.50;0.98;;;;;;;-148.22;100.00;64452.44;5009801;28;20057;-63
2022/09/18 11:08:57;;;;;;;4.53;1.03;;;;;;;-148.22;100.00;64452.44;5031234;28;20049;-63
2022/09/18 11:11:32;;;;;;;2.22;0.52;;;;;;;-148.22;100.00;64452.44;5023765;28;20339;-63
2022/09/18 11:14:39;;;;;;;3.20;0.90;;;;;;;-148.22;100.00;64452.44;5030566;28;20144;-64
2022/09/18 11:17:25;;;;;;;3.15;0.60;;;;;;;-148.22;100.00;64452.44;5029379;28;20528;-64
2022/09/18 11:19:55;;;;;;;5.47;1.25;;;;;;;-148.22;100.00;64452.44;5033708;28;20045;-63
2022/09/18 11:22:37;;;;;;;5.25;1.00;;;;;;;-148.22;100.00;64452.44;5014870;28;20091;-63
2022/09/18 11:25:21;;;;;;;3.50;0.70;;;;;;;-148.22;100.00;64452.44;5014712;28;20045;-64
2022/09/18 11:27:52;;;;;;;;;;;;;;;-148.22;100.00;64452.44;5035132;28;20060;-65
2022/09/18 11:30:25;;;;;;;2.70;0.60;;;;;;;-148.22;100.00;64452.44;5020934;28;20347;-64
2022/09/18 11:33:12;;;;;;;3.22;0.65;;;;;;;-148.22;100.00;64452.44;5036139;28;20053;-64
2022/09/18 11:35:45;;;;;;;3.22;0.68;;;;;;;-148.22;100.00;64452.44;5021411;28;20125;-66
2022/09/18 11:38:18;;;;;;;4.95;0.68;;;;;;;-148.22;100.00;64452.44;5021646;28;20534;-65
2022/09/18 11:40:50;;;;;;;4.28;0.95;;;;;;;-148.22;100.00;64452.44;5015025;28;20492;-66
2022/09/18 11:43:25;;;;;;;3.08;0.80;;;;;;;-148.22;100.00;64452.44;5028782;28;20046;-65
2022/09/18 11:46:16;;;;;;;2.60;0.60;;;;;;;-148.22;100.00;64452.44;5019298;28;20505;-66